sensor_id;sensor_type;location;lat;lon;timestamp;P1;durP1;ratioP1;P2;durP2;ratioP2
31746;SDS011;18319;48.974;8.462;2023-04-25T00:00:01;2.77;;;2.57;;
31746;SDS011;18319;48.974;8.462;2023-04-25T00:02:31;3.57;;;2.53;;
31746;SDS011;18319;48.974;8.462;2023-04-25T00:04:59;3.57;;;3.20;;
31746;SDS011;18319;48.974;8.462;2023-04-25T00:07:26;3.10;;;2.80;;
31746;SDS011;18319;48.974;8.462;2023-04-25T00:09:53;3.03;;;2.53;;
31746;SDS011;18319;48.974;8.462;2023-04-25T00:12:20;2.37;;;2.27;;
31746;SDS011;18319;48.974;8.462;2023-04-25T00:14:47;2.43;;;2.33;;
31746;SDS011;18319;48.974;8.462;2023-04-25T00:17:17;2.42;;;2.33;;
31746;SDS011;18319;48.974;8.462;2023-04-25T00:19:44;2.40;;;2.30;;
31746;SDS011;18319;48.974;8.462;2023-04-25T00:22:11;2.65;;;2.45;;
31746;SDS011;18319;48.974;8.462;2023-04-25T00:24:38;2.30;;;2.20;;
31746;SDS011;18319;48.974;8.462;2023-04-25T00:27:05;3.23;;;2.90;;
31746;SDS011;18319;48.974;8.462;2023-04-25T00:29:32;2.77;;;2.57;;
31746;SDS011;18319;48.974;8.462;2023-04-25T00:32:00;3.27;;;2.40;;
31746;SDS011;18319;48.974;8.462;2023-04-25T00:34:29;2.67;;;2.47;;
31746;SDS011;18319;48.974;8.462;2023-04-25T00:36:56;3.30;;;2.15;;
31746;SDS011;18319;48.974;8.462;2023-04-25T00:39:22;3.23;;;2.17;;
31746;SDS011;18319;48.974;8.462;2023-04-25T00:41:49;2.30;;;2.20;;
31746;SDS011;18319;48.974;8.462;2023-04-25T00:44:19;2.30;;;2.10;;
31746;SDS011;18319;48.974;8.462;2023-04-25T00:46:46;2.13;;;1.92;;
31746;SDS011;18319;48.974;8.462;2023-04-25T00:49:13;2.03;;;1.93;;
31746;SDS011;18319;48.974;8.462;2023-04-25T00:51:43;2.43;;;2.00;;
31746;SDS011;18319;48.974;8.462;2023-04-25T00:54:10;2.08;;;1.92;;
31746;SDS011;18319;48.974;8.462;2023-04-25T00:56:38;3.85;;;2.35;;
31746;SDS011;18319;48.974;8.462;2023-04-25T00:59:05;3.58;;;2.30;;
31746;SDS011;18319;48.974;8.462;2023-04-25T01:01:32;2.40;;;2.30;;
31746;SDS011;18319;48.974;8.462;2023-04-25T01:04:00;1.70;;;1.60;;
31746;SDS011;18319;48.974;8.462;2023-04-25T01:06:27;2.03;;;1.93;;
31746;SDS011;18319;48.974;8.462;2023-04-25T01:08:55;3.13;;;2.13;;
31746;SDS011;18319;48.974;8.462;2023-04-25T01:11:22;1.95;;;1.85;;
31746;SDS011;18319;48.974;8.462;2023-04-25T01:13:49;2.50;;;2.40;;
31746;SDS011;18319;48.974;8.462;2023-04-25T01:16:16;3.77;;;2.27;;
31746;SDS011;18319;48.974;8.462;2023-04-25T01:18:43;2.78;;;2.53;;
31746;SDS011;18319;48.974;8.462;2023-04-25T01:21:12;2.83;;;2.63;;
31746;SDS011;18319;48.974;8.462;2023-04-25T01:23:40;4.80;;;2.83;;
31746;SDS011;18319;48.974;8.462;2023-04-25T01:26:07;3.28;;;2.42;;
31746;SDS011;18319;48.974;8.462;2023-04-25T01:28:35;2.80;;;2.60;;
31746;SDS011;18319;48.974;8.462;2023-04-25T01:31:04;2.78;;;2.55;;
31746;SDS011;18319;48.974;8.462;2023-04-25T01:33:31;2.90;;;2.60;;
31746;SDS011;18319;48.974;8.462;2023-04-25T01:35:58;3.77;;;2.90;;
31746;SDS011;18319;48.974;8.462;2023-04-25T01:38:26;3.63;;;2.92;;
31746;SDS011;18319;48.974;8.462;2023-04-25T01:40:53;2.60;;;2.43;;
31746;SDS011;18319;48.974;8.462;2023-04-25T01:43:21;6.82;;;3.00;;
31746;SDS011;18319;48.974;8.462;2023-04-25T01:45:49;3.95;;;2.72;;
31746;SDS011;18319;48.974;8.462;2023-04-25T01:48:16;3.23;;;2.93;;
31746;SDS011;18319;48.974;8.462;2023-04-25T01:50:43;2.43;;;2.33;;
31746;SDS011;18319;48.974;8.462;2023-04-25T01:53:10;3.67;;;3.47;;
31746;SDS011;18319;48.974;8.462;2023-04-25T01:55:40;2.33;;;2.23;;
31746;SDS011;18319;48.974;8.462;2023-04-25T01:58:07;2.45;;;2.28;;
31746;SDS011;18319;48.974;8.462;2023-04-25T02:00:37;3.50;;;3.20;;
31746;SDS011;18319;48.974;8.462;2023-04-25T02:03:04;5.00;;;2.87;;
31746;SDS011;18319;48.974;8.462;2023-04-25T02:05:34;2.50;;;2.30;;
31746;SDS011;18319;48.974;8.462;2023-04-25T02:08:02;2.35;;;2.20;;
31746;SDS011;18319;48.974;8.462;2023-04-25T02:10:29;2.75;;;2.42;;
31746;SDS011;18319;48.974;8.462;2023-04-25T02:12:57;3.40;;;2.87;;
31746;SDS011;18319;48.974;8.462;2023-04-25T02:15:24;2.60;;;2.40;;
31746;SDS011;18319;48.974;8.462;2023-04-25T02:17:51;3.10;;;2.90;;
31746;SDS011;18319;48.974;8.462;2023-04-25T02:20:18;4.65;;;3.55;;
31746;SDS011;18319;48.974;8.462;2023-04-25T02:22:46;3.77;;;3.47;;
31746;SDS011;18319;48.974;8.462;2023-04-25T02:25:13;6.88;;;2.80;;
31746;SDS011;18319;48.974;8.462;2023-04-25T02:27:41;2.78;;;2.58;;
31746;SDS011;18319;48.974;8.462;2023-04-25T02:30:09;3.93;;;2.83;;
31746;SDS011;18319;48.974;8.462;2023-04-25T02:32:37;6.68;;;2.50;;
31746;SDS011;18319;48.974;8.462;2023-04-25T02:35:04;3.07;;;2.87;;
31746;SDS011;18319;48.974;8.462;2023-04-25T02:37:31;5.43;;;2.60;;
31746;SDS011;18319;48.974;8.462;2023-04-25T02:39:59;3.10;;;2.90;;
31746;SDS011;18319;48.974;8.462;2023-04-25T02:42:27;5.33;;;2.93;;
31746;SDS011;18319;48.974;8.462;2023-04-25T02:44:54;2.87;;;2.67;;
31746;SDS011;18319;48.974;8.462;2023-04-25T02:47:22;3.43;;;3.17;;
31746;SDS011;18319;48.974;8.462;2023-04-25T02:49:49;3.17;;;2.97;;
31746;SDS011;18319;48.974;8.462;2023-04-25T02:52:16;4.13;;;3.20;;
31746;SDS011;18319;48.974;8.462;2023-04-25T02:54:42;2.97;;;2.78;;
31746;SDS011;18319;48.974;8.462;2023-04-25T02:57:09;3.73;;;2.73;;
31746;SDS011;18319;48.974;8.462;2023-04-25T02:59:36;3.00;;;2.57;;
31746;SDS011;18319;48.974;8.462;2023-04-25T03:02:03;3.07;;;2.87;;
31746;SDS011;18319;48.974;8.462;2023-04-25T03:04:31;4.50;;;2.57;;
31746;SDS011;18319;48.974;8.462;2023-04-25T03:06:58;2.60;;;2.40;;
31746;SDS011;18319;48.974;8.462;2023-04-25T03:09:26;2.70;;;2.50;;
31746;SDS011;18319;48.974;8.462;2023-04-25T03:11:52;2.57;;;2.37;;
31746;SDS011;18319;48.974;8.462;2023-04-25T03:14:19;2.90;;;2.60;;
31746;SDS011;18319;48.974;8.462;2023-04-25T03:16:49;3.07;;;2.73;;
31746;SDS011;18319;48.974;8.462;2023-04-25T03:19:15;3.03;;;2.83;;
31746;SDS011;18319;48.974;8.462;2023-04-25T03:21:44;3.43;;;3.17;;
31746;SDS011;18319;48.974;8.462;2023-04-25T03:24:11;2.92;;;2.50;;
31746;SDS011;18319;48.974;8.462;2023-04-25T03:26:38;3.05;;;2.83;;
31746;SDS011;18319;48.974;8.462;2023-04-25T03:29:05;3.73;;;3.43;;
31746;SDS011;18319;48.974;8.462;2023-04-25T03:31:31;5.13;;;2.88;;
31746;SDS011;18319;48.974;8.462;2023-04-25T03:33:58;4.10;;;3.40;;
31746;SDS011;18319;48.974;8.462;2023-04-25T03:36:25;4.00;;;3.70;;
31746;SDS011;18319;48.974;8.462;2023-04-25T03:38:53;3.50;;;3.30;;
31746;SDS011;18319;48.974;8.462;2023-04-25T03:41:20;3.37;;;3.10;;
31746;SDS011;18319;48.974;8.462;2023-04-25T03:43:46;3.87;;;3.57;;
31746;SDS011;18319;48.974;8.462;2023-04-25T03:46:13;3.53;;;3.30;;
31746;SDS011;18319;48.974;8.462;2023-04-25T03:48:40;3.30;;;3.00;;
31746;SDS011;18319;48.974;8.462;2023-04-25T03:51:07;3.50;;;3.30;;
31746;SDS011;18319;48.974;8.462;2023-04-25T03:53:33;3.27;;;3.07;;
31746;SDS011;18319;48.974;8.462;2023-04-25T03:56:01;3.33;;;3.13;;
31746;SDS011;18319;48.974;8.462;2023-04-25T03:58:28;3.75;;;3.50;;
31746;SDS011;18319;48.974;8.462;2023-04-25T04:00:55;2.93;;;2.73;;
31746;SDS011;18319;48.974;8.462;2023-04-25T04:03:22;3.80;;;2.90;;
31746;SDS011;18319;48.974;8.462;2023-04-25T04:05:48;2.73;;;2.53;;
31746;SDS011;18319;48.974;8.462;2023-04-25T04:08:15;7.27;;;3.20;;
31746;SDS011;18319;48.974;8.462;2023-04-25T04:10:42;3.23;;;3.00;;
31746;SDS011;18319;48.974;8.462;2023-04-25T04:13:10;3.73;;;3.43;;
31746;SDS011;18319;48.974;8.462;2023-04-25T04:15:37;3.47;;;3.17;;
31746;SDS011;18319;48.974;8.462;2023-04-25T04:18:04;5.53;;;2.70;;
31746;SDS011;18319;48.974;8.462;2023-04-25T04:20:31;3.27;;;3.07;;
31746;SDS011;18319;48.974;8.462;2023-04-25T04:22:57;4.43;;;4.03;;
31746;SDS011;18319;48.974;8.462;2023-04-25T04:25:24;3.55;;;3.25;;
31746;SDS011;18319;48.974;8.462;2023-04-25T04:27:51;3.37;;;3.17;;
31746;SDS011;18319;48.974;8.462;2023-04-25T04:30:21;3.97;;;3.65;;
31746;SDS011;18319;48.974;8.462;2023-04-25T04:32:49;3.60;;;3.30;;
31746;SDS011;18319;48.974;8.462;2023-04-25T04:35:16;3.53;;;3.23;;
31746;SDS011;18319;48.974;8.462;2023-04-25T04:37:43;5.13;;;3.73;;
31746;SDS011;18319;48.974;8.462;2023-04-25T04:40:10;3.03;;;2.83;;
31746;SDS011;18319;48.974;8.462;2023-04-25T04:42:40;4.10;;;3.10;;
31746;SDS011;18319;48.974;8.462;2023-04-25T04:45:07;2.77;;;2.63;;
31746;SDS011;18319;48.974;8.462;2023-04-25T04:47:36;3.63;;;2.60;;
31746;SDS011;18319;48.974;8.462;2023-04-25T04:50:05;3.05;;;2.85;;
31746;SDS011;18319;48.974;8.462;2023-04-25T04:52:33;3.40;;;3.20;;
31746;SDS011;18319;48.974;8.462;2023-04-25T04:55:00;3.53;;;3.33;;
31746;SDS011;18319;48.974;8.462;2023-04-25T04:57:27;3.20;;;2.90;;
31746;SDS011;18319;48.974;8.462;2023-04-25T04:59:54;3.40;;;3.17;;
31746;SDS011;18319;48.974;8.462;2023-04-25T05:02:20;3.17;;;2.97;;
31746;SDS011;18319;48.974;8.462;2023-04-25T05:04:49;4.30;;;3.58;;
31746;SDS011;18319;48.974;8.462;2023-04-25T05:07:17;3.00;;;2.80;;
31746;SDS011;18319;48.974;8.462;2023-04-25T05:09:45;2.70;;;2.50;;
31746;SDS011;18319;48.974;8.462;2023-04-25T05:12:11;3.10;;;2.90;;
31746;SDS011;18319;48.974;8.462;2023-04-25T05:14:38;2.97;;;2.78;;
31746;SDS011;18319;48.974;8.462;2023-04-25T05:17:08;2.97;;;2.73;;
31746;SDS011;18319;48.974;8.462;2023-04-25T05:19:35;5.00;;;2.70;;
31746;SDS011;18319;48.974;8.462;2023-04-25T05:22:03;3.20;;;3.00;;
31746;SDS011;18319;48.974;8.462;2023-04-25T05:24:30;2.87;;;2.67;;
31746;SDS011;18319;48.974;8.462;2023-04-25T05:26:56;2.50;;;2.40;;
31746;SDS011;18319;48.974;8.462;2023-04-25T05:29:23;2.33;;;2.23;;
31746;SDS011;18319;48.974;8.462;2023-04-25T05:31:50;2.80;;;2.10;;
31746;SDS011;18319;48.974;8.462;2023-04-25T05:34:18;3.50;;;3.17;;
31746;SDS011;18319;48.974;8.462;2023-04-25T05:36:45;2.53;;;2.33;;
31746;SDS011;18319;48.974;8.462;2023-04-25T05:39:14;3.83;;;2.67;;
31746;SDS011;18319;48.974;8.462;2023-04-25T05:41:41;3.22;;;3.03;;
31746;SDS011;18319;48.974;8.462;2023-04-25T05:44:08;3.30;;;3.00;;
31746;SDS011;18319;48.974;8.462;2023-04-25T05:46:35;2.33;;;2.23;;
31746;SDS011;18319;48.974;8.462;2023-04-25T05:49:02;2.77;;;2.57;;
31746;SDS011;18319;48.974;8.462;2023-04-25T05:51:29;2.45;;;2.35;;
31746;SDS011;18319;48.974;8.462;2023-04-25T05:53:56;2.90;;;2.47;;
31746;SDS011;18319;48.974;8.462;2023-04-25T05:56:24;3.10;;;2.40;;
31746;SDS011;18319;48.974;8.462;2023-04-25T05:58:51;2.92;;;2.72;;
31746;SDS011;18319;48.974;8.462;2023-04-25T06:01:18;2.90;;;2.70;;
31746;SDS011;18319;48.974;8.462;2023-04-25T06:03:45;3.28;;;2.38;;
31746;SDS011;18319;48.974;8.462;2023-04-25T06:06:12;3.20;;;2.95;;
31746;SDS011;18319;48.974;8.462;2023-04-25T06:08:39;3.42;;;3.22;;
31746;SDS011;18319;48.974;8.462;2023-04-25T06:11:06;3.47;;;3.17;;
31746;SDS011;18319;48.974;8.462;2023-04-25T06:13:34;3.47;;;3.20;;
31746;SDS011;18319;48.974;8.462;2023-04-25T06:16:01;3.53;;;3.10;;
31746;SDS011;18319;48.974;8.462;2023-04-25T06:18:28;3.33;;;3.13;;
31746;SDS011;18319;48.974;8.462;2023-04-25T06:20:55;2.22;;;2.03;;
31746;SDS011;18319;48.974;8.462;2023-04-25T06:23:22;4.97;;;2.85;;
31746;SDS011;18319;48.974;8.462;2023-04-25T06:25:48;2.72;;;2.53;;
31746;SDS011;18319;48.974;8.462;2023-04-25T06:28:15;2.25;;;2.15;;
31746;SDS011;18319;48.974;8.462;2023-04-25T06:30:43;2.53;;;2.42;;
31746;SDS011;18319;48.974;8.462;2023-04-25T06:33:10;3.33;;;2.70;;
31746;SDS011;18319;48.974;8.462;2023-04-25T06:35:37;3.03;;;2.75;;
31746;SDS011;18319;48.974;8.462;2023-04-25T06:38:03;2.95;;;2.70;;
31746;SDS011;18319;48.974;8.462;2023-04-25T06:40:30;3.40;;;3.10;;
31746;SDS011;18319;48.974;8.462;2023-04-25T06:42:57;3.00;;;2.70;;
31746;SDS011;18319;48.974;8.462;2023-04-25T06:45:24;3.17;;;2.97;;
31746;SDS011;18319;48.974;8.462;2023-04-25T06:47:52;3.40;;;2.93;;
31746;SDS011;18319;48.974;8.462;2023-04-25T06:50:19;4.87;;;3.37;;
31746;SDS011;18319;48.974;8.462;2023-04-25T06:52:46;3.70;;;3.40;;
31746;SDS011;18319;48.974;8.462;2023-04-25T06:55:13;3.90;;;3.60;;
31746;SDS011;18319;48.974;8.462;2023-04-25T06:57:39;4.13;;;3.57;;
31746;SDS011;18319;48.974;8.462;2023-04-25T07:00:07;3.88;;;3.53;;
31746;SDS011;18319;48.974;8.462;2023-04-25T07:02:34;4.70;;;4.27;;
31746;SDS011;18319;48.974;8.462;2023-04-25T07:05:02;4.18;;;3.90;;
31746;SDS011;18319;48.974;8.462;2023-04-25T07:07:30;4.50;;;4.10;;
31746;SDS011;18319;48.974;8.462;2023-04-25T07:09:57;4.27;;;3.93;;
31746;SDS011;18319;48.974;8.462;2023-04-25T07:12:23;5.00;;;4.63;;
31746;SDS011;18319;48.974;8.462;2023-04-25T07:14:50;4.50;;;4.10;;
31746;SDS011;18319;48.974;8.462;2023-04-25T07:17:17;5.50;;;4.53;;
31746;SDS011;18319;48.974;8.462;2023-04-25T07:19:44;4.25;;;3.83;;
31746;SDS011;18319;48.974;8.462;2023-04-25T07:22:12;4.15;;;3.85;;
31746;SDS011;18319;48.974;8.462;2023-04-25T07:24:39;4.60;;;4.13;;
31746;SDS011;18319;48.974;8.462;2023-04-25T07:27:05;4.27;;;3.97;;
31746;SDS011;18319;48.974;8.462;2023-04-25T07:29:32;4.27;;;3.93;;
31746;SDS011;18319;48.974;8.462;2023-04-25T07:32:02;4.47;;;4.17;;
31746;SDS011;18319;48.974;8.462;2023-04-25T07:34:29;4.15;;;3.85;;
31746;SDS011;18319;48.974;8.462;2023-04-25T07:36:57;4.95;;;4.55;;
31746;SDS011;18319;48.974;8.462;2023-04-25T07:39:25;4.78;;;4.47;;
31746;SDS011;18319;48.974;8.462;2023-04-25T07:41:52;6.63;;;4.80;;
31746;SDS011;18319;48.974;8.462;2023-04-25T07:44:19;5.03;;;4.47;;
31746;SDS011;18319;48.974;8.462;2023-04-25T07:46:46;4.35;;;4.07;;
31746;SDS011;18319;48.974;8.462;2023-04-25T07:49:13;5.03;;;4.43;;
31746;SDS011;18319;48.974;8.462;2023-04-25T07:51:40;5.10;;;4.55;;
31746;SDS011;18319;48.974;8.462;2023-04-25T07:54:08;4.35;;;3.95;;
31746;SDS011;18319;48.974;8.462;2023-04-25T07:56:36;5.83;;;5.33;;
31746;SDS011;18319;48.974;8.462;2023-04-25T07:59:03;5.10;;;4.60;;
31746;SDS011;18319;48.974;8.462;2023-04-25T08:01:30;6.20;;;4.70;;
31746;SDS011;18319;48.974;8.462;2023-04-25T08:03:57;4.90;;;4.50;;
31746;SDS011;18319;48.974;8.462;2023-04-25T08:06:23;5.03;;;4.63;;
31746;SDS011;18319;48.974;8.462;2023-04-25T08:08:50;6.68;;;4.85;;
31746;SDS011;18319;48.974;8.462;2023-04-25T08:11:17;6.00;;;5.43;;
31746;SDS011;18319;48.974;8.462;2023-04-25T08:13:45;5.53;;;4.82;;
31746;SDS011;18319;48.974;8.462;2023-04-25T08:16:12;5.53;;;5.00;;
31746;SDS011;18319;48.974;8.462;2023-04-25T08:18:39;5.63;;;5.23;;
31746;SDS011;18319;48.974;8.462;2023-04-25T08:21:05;6.53;;;6.00;;
31746;SDS011;18319;48.974;8.462;2023-04-25T08:23:33;6.05;;;5.53;;
31746;SDS011;18319;48.974;8.462;2023-04-25T08:26:00;5.40;;;5.00;;
31746;SDS011;18319;48.974;8.462;2023-04-25T08:28:28;6.10;;;5.50;;
31746;SDS011;18319;48.974;8.462;2023-04-25T08:30:56;5.53;;;5.07;;
31746;SDS011;18319;48.974;8.462;2023-04-25T08:33:22;6.40;;;4.93;;
31746;SDS011;18319;48.974;8.462;2023-04-25T08:35:50;5.78;;;5.28;;
31746;SDS011;18319;48.974;8.462;2023-04-25T08:38:17;6.00;;;5.45;;
31746;SDS011;18319;48.974;8.462;2023-04-25T08:40:45;6.65;;;6.10;;
31746;SDS011;18319;48.974;8.462;2023-04-25T08:43:16;10.30;;;6.47;;
31746;SDS011;18319;48.974;8.462;2023-04-25T08:45:46;7.72;;;7.05;;
31746;SDS011;18319;48.974;8.462;2023-04-25T08:48:15;7.00;;;6.40;;
31746;SDS011;18319;48.974;8.462;2023-04-25T08:50:44;7.18;;;5.88;;
31746;SDS011;18319;48.974;8.462;2023-04-25T08:53:15;7.35;;;6.60;;
31746;SDS011;18319;48.974;8.462;2023-04-25T08:55:45;6.78;;;6.05;;
31746;SDS011;18319;48.974;8.462;2023-04-25T08:58:12;7.95;;;7.30;;
31746;SDS011;18319;48.974;8.462;2023-04-25T09:00:39;7.82;;;7.03;;
31746;SDS011;18319;48.974;8.462;2023-04-25T09:03:06;7.55;;;6.78;;
31746;SDS011;18319;48.974;8.462;2023-04-25T09:05:34;7.93;;;6.88;;
31746;SDS011;18319;48.974;8.462;2023-04-25T09:08:02;7.88;;;7.10;;
31746;SDS011;18319;48.974;8.462;2023-04-25T09:10:29;7.13;;;6.53;;
31746;SDS011;18319;48.974;8.462;2023-04-25T09:13:02;8.25;;;7.50;;
31746;SDS011;18319;48.974;8.462;2023-04-25T09:15:31;7.30;;;6.60;;
31746;SDS011;18319;48.974;8.462;2023-04-25T09:17:58;7.15;;;6.55;;
31746;SDS011;18319;48.974;8.462;2023-04-25T09:20:26;7.70;;;7.03;;
31746;SDS011;18319;48.974;8.462;2023-04-25T09:23:05;7.43;;;6.75;;
31746;SDS011;18319;48.974;8.462;2023-04-25T09:25:35;11.23;;;7.35;;
31746;SDS011;18319;48.974;8.462;2023-04-25T09:28:04;9.10;;;6.63;;
31746;SDS011;18319;48.974;8.462;2023-04-25T09:30:32;7.85;;;7.05;;
31746;SDS011;18319;48.974;8.462;2023-04-25T09:33:04;7.65;;;6.95;;
31746;SDS011;18319;48.974;8.462;2023-04-25T09:35:35;7.90;;;6.55;;
31746;SDS011;18319;48.974;8.462;2023-04-25T09:38:08;7.35;;;6.65;;
31746;SDS011;18319;48.974;8.462;2023-04-25T09:40:40;7.65;;;6.90;;
31746;SDS011;18319;48.974;8.462;2023-04-25T09:43:10;7.95;;;7.25;;
31746;SDS011;18319;48.974;8.462;2023-04-25T09:45:41;7.47;;;6.72;;
31746;SDS011;18319;48.974;8.462;2023-04-25T09:48:10;9.52;;;7.72;;
31746;SDS011;18319;48.974;8.462;2023-04-25T09:50:38;7.90;;;7.20;;
31746;SDS011;18319;48.974;8.462;2023-04-25T09:53:05;8.43;;;7.35;;
31746;SDS011;18319;48.974;8.462;2023-04-25T09:55:34;8.45;;;7.57;;
31746;SDS011;18319;48.974;8.462;2023-04-25T09:58:03;9.55;;;6.97;;
31746;SDS011;18319;48.974;8.462;2023-04-25T10:00:31;9.98;;;6.72;;
31746;SDS011;18319;48.974;8.462;2023-04-25T10:03:00;7.45;;;6.70;;
31746;SDS011;18319;48.974;8.462;2023-04-25T10:05:28;5.70;;;5.20;;
31746;SDS011;18319;48.974;8.462;2023-04-25T10:07:58;5.15;;;4.75;;
31746;SDS011;18319;48.974;8.462;2023-04-25T10:10:28;5.00;;;4.57;;
31746;SDS011;18319;48.974;8.462;2023-04-25T10:13:02;5.00;;;4.50;;
31746;SDS011;18319;48.974;8.462;2023-04-25T10:15:34;6.30;;;5.10;;
31746;SDS011;18319;48.974;8.462;2023-04-25T10:18:02;6.05;;;5.35;;
31746;SDS011;18319;48.974;8.462;2023-04-25T10:20:29;5.70;;;4.73;;
31746;SDS011;18319;48.974;8.462;2023-04-25T10:22:59;4.68;;;4.35;;
31746;SDS011;18319;48.974;8.462;2023-04-25T10:25:32;4.18;;;3.88;;
31746;SDS011;18319;48.974;8.462;2023-04-25T10:28:00;4.20;;;3.90;;
31746;SDS011;18319;48.974;8.462;2023-04-25T10:30:29;4.90;;;4.53;;
31746;SDS011;18319;48.974;8.462;2023-04-25T10:32:56;6.82;;;5.72;;
31746;SDS011;18319;48.974;8.462;2023-04-25T10:35:25;5.32;;;4.82;;
31746;SDS011;18319;48.974;8.462;2023-04-25T10:37:56;6.85;;;5.72;;
31746;SDS011;18319;48.974;8.462;2023-04-25T10:40:24;6.10;;;5.60;;
31746;SDS011;18319;48.974;8.462;2023-04-25T10:42:51;6.75;;;6.05;;
31746;SDS011;18319;48.974;8.462;2023-04-25T10:45:19;8.27;;;6.15;;
31746;SDS011;18319;48.974;8.462;2023-04-25T10:47:46;6.68;;;5.85;;
31746;SDS011;18319;48.974;8.462;2023-04-25T10:50:14;7.88;;;6.47;;
31746;SDS011;18319;48.974;8.462;2023-04-25T10:52:41;6.32;;;5.72;;
31746;SDS011;18319;48.974;8.462;2023-04-25T10:55:09;6.15;;;5.55;;
31746;SDS011;18319;48.974;8.462;2023-04-25T11:00:05;7.68;;;5.93;;
31746;SDS011;18319;48.974;8.462;2023-04-25T11:02:38;7.28;;;6.47;;
31746;SDS011;18319;48.974;8.462;2023-04-25T11:05:08;7.18;;;6.57;;
31746;SDS011;18319;48.974;8.462;2023-04-25T11:07:37;6.68;;;5.70;;
31746;SDS011;18319;48.974;8.462;2023-04-25T11:10:05;6.78;;;6.00;;
31746;SDS011;18319;48.974;8.462;2023-04-25T11:12:33;6.03;;;5.43;;
31746;SDS011;18319;48.974;8.462;2023-04-25T11:15:00;5.97;;;5.47;;
31746;SDS011;18319;48.974;8.462;2023-04-25T11:17:28;5.80;;;5.10;;
31746;SDS011;18319;48.974;8.462;2023-04-25T11:19:57;6.47;;;5.93;;
31746;SDS011;18319;48.974;8.462;2023-04-25T11:22:24;6.85;;;5.95;;
31746;SDS011;18319;48.974;8.462;2023-04-25T11:24:52;6.78;;;5.72;;
31746;SDS011;18319;48.974;8.462;2023-04-25T11:27:19;7.20;;;5.95;;
31746;SDS011;18319;48.974;8.462;2023-04-25T11:29:49;10.15;;;5.80;;
31746;SDS011;18319;48.974;8.462;2023-04-25T11:32:17;9.68;;;6.05;;
31746;SDS011;18319;48.974;8.462;2023-04-25T11:34:44;8.43;;;6.15;;
31746;SDS011;18319;48.974;8.462;2023-04-25T11:37:12;9.40;;;6.72;;
31746;SDS011;18319;48.974;8.462;2023-04-25T11:39:44;7.38;;;6.38;;
31746;SDS011;18319;48.974;8.462;2023-04-25T11:42:12;7.90;;;6.18;;
31746;SDS011;18319;48.974;8.462;2023-04-25T11:44:39;8.25;;;6.72;;
31746;SDS011;18319;48.974;8.462;2023-04-25T11:47:06;14.27;;;6.72;;
31746;SDS011;18319;48.974;8.462;2023-04-25T11:49:33;7.40;;;6.30;;
31746;SDS011;18319;48.974;8.462;2023-04-25T11:52:01;9.23;;;5.93;;
31746;SDS011;18319;48.974;8.462;2023-04-25T11:54:29;7.45;;;6.72;;
31746;SDS011;18319;48.974;8.462;2023-04-25T11:56:56;6.82;;;6.28;;
31746;SDS011;18319;48.974;8.462;2023-04-25T11:59:23;6.80;;;6.10;;
31746;SDS011;18319;48.974;8.462;2023-04-25T12:01:51;9.27;;;7.13;;
31746;SDS011;18319;48.974;8.462;2023-04-25T12:04:19;5.95;;;5.43;;
31746;SDS011;18319;48.974;8.462;2023-04-25T12:06:48;8.73;;;6.45;;
31746;SDS011;18319;48.974;8.462;2023-04-25T12:09:16;6.85;;;6.25;;
31746;SDS011;18319;48.974;8.462;2023-04-25T12:11:48;7.68;;;6.47;;
31746;SDS011;18319;48.974;8.462;2023-04-25T12:14:22;7.15;;;6.22;;
31746;SDS011;18319;48.974;8.462;2023-04-25T12:16:52;7.63;;;6.68;;
31746;SDS011;18319;48.974;8.462;2023-04-25T12:19:22;9.75;;;7.10;;
31746;SDS011;18319;48.974;8.462;2023-04-25T12:21:49;6.85;;;6.22;;
31746;SDS011;18319;48.974;8.462;2023-04-25T12:24:17;7.50;;;5.82;;
31746;SDS011;18319;48.974;8.462;2023-04-25T12:26:50;6.35;;;5.75;;
31746;SDS011;18319;48.974;8.462;2023-04-25T12:29:21;11.32;;;6.32;;
31746;SDS011;18319;48.974;8.462;2023-04-25T12:31:50;6.80;;;6.20;;
31746;SDS011;18319;48.974;8.462;2023-04-25T12:34:18;6.70;;;6.10;;
31746;SDS011;18319;48.974;8.462;2023-04-25T12:36:45;7.85;;;6.40;;
31746;SDS011;18319;48.974;8.462;2023-04-25T12:39:15;8.27;;;7.07;;
31746;SDS011;18319;48.974;8.462;2023-04-25T12:41:42;7.55;;;6.95;;
31746;SDS011;18319;48.974;8.462;2023-04-25T12:44:12;8.23;;;6.60;;
31746;SDS011;18319;48.974;8.462;2023-04-25T12:46:39;8.00;;;5.90;;
31746;SDS011;18319;48.974;8.462;2023-04-25T12:49:07;6.80;;;5.93;;
31746;SDS011;18319;48.974;8.462;2023-04-25T12:51:34;7.28;;;6.65;;
31746;SDS011;18319;48.974;8.462;2023-04-25T12:54:01;6.35;;;5.55;;
31746;SDS011;18319;48.974;8.462;2023-04-25T12:56:30;5.88;;;5.18;;
31746;SDS011;18319;48.974;8.462;2023-04-25T12:58:57;5.13;;;4.63;;
31746;SDS011;18319;48.974;8.462;2023-04-25T13:01:25;5.30;;;4.90;;
31746;SDS011;18319;48.974;8.462;2023-04-25T13:03:52;6.15;;;5.50;;
31746;SDS011;18319;48.974;8.462;2023-04-25T13:06:19;5.60;;;5.10;;
31746;SDS011;18319;48.974;8.462;2023-04-25T13:08:47;5.25;;;4.43;;
31746;SDS011;18319;48.974;8.462;2023-04-25T13:11:14;5.53;;;5.13;;
31746;SDS011;18319;48.974;8.462;2023-04-25T13:13:41;6.32;;;5.22;;
31746;SDS011;18319;48.974;8.462;2023-04-25T13:16:08;5.45;;;5.05;;
31746;SDS011;18319;48.974;8.462;2023-04-25T13:18:36;5.53;;;5.03;;
31746;SDS011;18319;48.974;8.462;2023-04-25T13:21:03;4.70;;;4.18;;
31746;SDS011;18319;48.974;8.462;2023-04-25T13:23:30;6.05;;;4.80;;
31746;SDS011;18319;48.974;8.462;2023-04-25T13:25:57;5.47;;;4.95;;
31746;SDS011;18319;48.974;8.462;2023-04-25T13:28:24;4.93;;;4.55;;
31746;SDS011;18319;48.974;8.462;2023-04-25T13:30:51;4.18;;;3.88;;
31746;SDS011;18319;48.974;8.462;2023-04-25T13:33:19;3.78;;;3.58;;
31746;SDS011;18319;48.974;8.462;2023-04-25T13:35:47;4.35;;;3.88;;
31746;SDS011;18319;48.974;8.462;2023-04-25T13:38:19;2.88;;;2.55;;
31746;SDS011;18319;48.974;8.462;2023-04-25T13:40:47;3.55;;;3.25;;
31746;SDS011;18319;48.974;8.462;2023-04-25T13:43:14;2.50;;;2.40;;
31746;SDS011;18319;48.974;8.462;2023-04-25T13:45:41;2.85;;;2.65;;
31746;SDS011;18319;48.974;8.462;2023-04-25T13:48:08;2.67;;;2.45;;
31746;SDS011;18319;48.974;8.462;2023-04-25T13:50:35;3.08;;;2.88;;
31746;SDS011;18319;48.974;8.462;2023-04-25T13:53:03;3.35;;;2.55;;
31746;SDS011;18319;48.974;8.462;2023-04-25T13:55:30;2.88;;;2.60;;
31746;SDS011;18319;48.974;8.462;2023-04-25T13:57:57;2.83;;;2.63;;
31746;SDS011;18319;48.974;8.462;2023-04-25T14:00:23;3.47;;;3.17;;
31746;SDS011;18319;48.974;8.462;2023-04-25T14:02:50;3.08;;;2.88;;
31746;SDS011;18319;48.974;8.462;2023-04-25T14:05:18;3.05;;;2.80;;
31746;SDS011;18319;48.974;8.462;2023-04-25T14:07:45;3.70;;;3.38;;
31746;SDS011;18319;48.974;8.462;2023-04-25T14:10:13;3.03;;;2.42;;
31746;SDS011;18319;48.974;8.462;2023-04-25T14:12:40;3.63;;;3.33;;
31746;SDS011;18319;48.974;8.462;2023-04-25T14:15:07;3.13;;;2.92;;
31746;SDS011;18319;48.974;8.462;2023-04-25T14:17:34;3.33;;;3.13;;
31746;SDS011;18319;48.974;8.462;2023-04-25T14:20:01;3.72;;;3.25;;
31746;SDS011;18319;48.974;8.462;2023-04-25T14:22:30;5.10;;;3.33;;
31746;SDS011;18319;48.974;8.462;2023-04-25T14:24:57;3.45;;;3.15;;
31746;SDS011;18319;48.974;8.462;2023-04-25T14:27:25;3.67;;;3.38;;
31746;SDS011;18319;48.974;8.462;2023-04-25T14:29:52;3.80;;;3.50;;
31746;SDS011;18319;48.974;8.462;2023-04-25T14:32:19;4.78;;;4.38;;
31746;SDS011;18319;48.974;8.462;2023-04-25T14:34:46;3.97;;;3.22;;
31746;SDS011;18319;48.974;8.462;2023-04-25T14:37:14;3.90;;;3.55;;
31746;SDS011;18319;48.974;8.462;2023-04-25T14:39:41;6.65;;;3.75;;
31746;SDS011;18319;48.974;8.462;2023-04-25T14:42:08;5.50;;;3.67;;
31746;SDS011;18319;48.974;8.462;2023-04-25T14:44:37;3.70;;;3.50;;
31746;SDS011;18319;48.974;8.462;2023-04-25T14:47:04;3.58;;;2.97;;
31746;SDS011;18319;48.974;8.462;2023-04-25T14:49:31;3.53;;;3.22;;
31746;SDS011;18319;48.974;8.462;2023-04-25T14:51:58;3.75;;;3.22;;